createdAt,value
2023-12-09T00:00:02.217Z,13.50
2023-12-09T00:03:06.861Z,13.57
2023-12-09T00:06:10.969Z,13.27
2023-12-09T00:09:15.425Z,13.00
2023-12-09T00:12:18.984Z,12.70
2023-12-09T00:15:23.677Z,12.80
2023-12-09T00:18:27.119Z,13.10
2023-12-09T00:21:30.540Z,12.60
2023-12-09T00:24:33.781Z,11.50
2023-12-09T00:27:37.230Z,13.13
2023-12-09T00:30:41.767Z,11.80
2023-12-09T00:33:45.162Z,12.40
2023-12-09T00:36:48.429Z,12.40
2023-12-09T00:39:51.649Z,11.57
2023-12-09T00:42:54.912Z,12.13
2023-12-09T00:45:59.561Z,12.57
2023-12-09T00:49:02.852Z,12.63
2023-12-09T00:52:07.733Z,12.70
2023-12-09T00:55:12.656Z,12.23
2023-12-09T00:58:17.458Z,12.47
2023-12-09T01:01:22.039Z,12.47
2023-12-09T01:04:25.498Z,12.07
2023-12-09T01:07:28.872Z,12.20
2023-12-09T01:10:32.004Z,12.10
2023-12-09T01:13:35.212Z,11.57
2023-12-09T01:16:39.828Z,11.70
2023-12-09T01:19:43.160Z,12.20
2023-12-09T01:22:48.911Z,11.50
2023-12-09T01:25:52.094Z,11.40
2023-12-09T01:28:57.831Z,11.13
2023-12-09T01:32:02.389Z,10.23
2023-12-09T01:35:06.967Z,10.83
2023-12-09T01:38:10.702Z,10.47
2023-12-09T01:41:13.911Z,10.47
2023-12-09T01:44:18.583Z,10.23
2023-12-09T01:47:24.326Z,10.20
2023-12-09T01:50:28.522Z,9.90
2023-12-09T01:53:32.290Z,10.40
2023-12-09T01:56:35.523Z,9.83
2023-12-09T01:59:39.253Z,9.00
2023-12-09T02:02:43.822Z,9.40
2023-12-09T02:05:46.932Z,8.90
2023-12-09T02:08:50.868Z,9.10
2023-12-09T02:12:00.476Z,9.30
2023-12-09T02:15:08.764Z,9.00
2023-12-09T02:18:14.688Z,9.03
2023-12-09T02:21:18.701Z,8.97
2023-12-09T02:24:23.358Z,8.53
2023-12-09T02:27:33.750Z,8.00
2023-12-09T02:30:47.128Z,8.17
2023-12-09T02:33:51.101Z,7.80
2023-12-09T02:36:55.229Z,8.10
2023-12-09T02:40:02.056Z,7.83
2023-12-09T02:43:06.397Z,8.13
2023-12-09T02:46:13.696Z,8.30
2023-12-09T02:49:17.124Z,8.07
2023-12-09T02:52:20.665Z,8.53
2023-12-09T02:55:25.383Z,8.67
2023-12-09T02:58:28.623Z,7.93
2023-12-09T03:01:31.718Z,8.10
2023-12-09T03:04:35.383Z,7.63
2023-12-09T03:07:38.611Z,8.33
2023-12-09T03:10:43.189Z,7.63
2023-12-09T03:13:46.459Z,8.33
2023-12-09T03:16:49.639Z,7.33
2023-12-09T03:19:52.996Z,7.87
2023-12-09T03:22:56.184Z,7.53
2023-12-09T03:26:00.726Z,7.03
2023-12-09T03:29:03.902Z,7.83
2023-12-09T03:32:07.213Z,6.83
2023-12-09T03:35:13.603Z,7.87
2023-12-09T03:38:16.751Z,7.13
2023-12-09T03:41:24.591Z,7.57
2023-12-09T03:44:29.027Z,6.83
2023-12-09T03:47:32.521Z,7.33
2023-12-09T03:50:35.616Z,7.10
2023-12-09T03:53:38.777Z,7.90
2023-12-09T03:56:43.364Z,6.83
2023-12-09T03:59:46.547Z,7.00
2023-12-09T04:02:49.691Z,7.40
2023-12-09T04:05:52.953Z,6.77
2023-12-09T04:08:56.198Z,6.40
2023-12-09T04:12:01.529Z,6.60
2023-12-09T04:15:05.183Z,6.63
2023-12-09T04:18:08.903Z,6.77
2023-12-09T04:21:12.163Z,6.33
2023-12-09T04:24:15.481Z,5.63
2023-12-09T04:27:20.315Z,5.70
2023-12-09T04:30:24.341Z,6.13
2023-12-09T04:33:27.466Z,6.23
2023-12-09T04:36:30.999Z,5.90
2023-12-09T04:39:34.327Z,5.50
2023-12-09T04:42:39.303Z,5.67
2023-12-09T04:45:42.530Z,5.13
2023-12-09T04:48:45.998Z,6.03
2023-12-09T04:51:49.351Z,5.13
2023-12-09T04:54:52.563Z,5.10
2023-12-09T04:57:58.668Z,4.87
2023-12-09T05:01:03.295Z,5.10
2023-12-09T05:04:06.670Z,4.80
2023-12-09T05:07:09.964Z,4.70
2023-12-09T05:10:13.664Z,5.67
2023-12-09T05:13:18.491Z,5.20
2023-12-09T05:16:21.605Z,4.90
2023-12-09T05:19:25.908Z,5.10
2023-12-09T05:22:29.298Z,5.67
2023-12-09T05:25:32.543Z,4.53
2023-12-09T05:28:37.402Z,4.63
2023-12-09T05:31:42.027Z,4.13
2023-12-09T05:34:45.309Z,4.80
2023-12-09T05:37:48.812Z,4.50
2023-12-09T05:40:51.991Z,4.70
2023-12-09T05:43:56.719Z,4.60
2023-12-09T05:46:59.873Z,4.23
2023-12-09T05:50:02.997Z,4.57
2023-12-09T05:53:06.180Z,4.33
2023-12-09T05:56:12.117Z,4.63
2023-12-09T05:59:16.991Z,4.53
2023-12-09T06:02:20.128Z,4.57
2023-12-09T06:05:26.584Z,4.63
2023-12-09T06:08:29.787Z,4.37
2023-12-09T06:11:33.256Z,5.40
2023-12-09T06:14:37.837Z,4.90
2023-12-09T06:17:40.955Z,4.53
2023-12-09T06:20:44.131Z,5.13
2023-12-09T06:23:49.108Z,4.70
2023-12-09T06:26:52.192Z,5.50
2023-12-09T06:29:56.872Z,5.60
2023-12-09T06:33:02.134Z,5.90
2023-12-09T06:36:06.079Z,5.67
2023-12-09T06:39:10.375Z,5.00
2023-12-09T06:42:13.698Z,5.60
2023-12-09T06:45:18.764Z,6.00
2023-12-09T06:48:22.987Z,5.47
2023-12-09T06:51:26.839Z,6.00
2023-12-09T06:54:29.956Z,6.87
2023-12-09T06:57:33.135Z,7.93
2023-12-09T07:00:38.755Z,8.47
2023-12-09T07:03:42.625Z,8.30
2023-12-09T07:06:45.912Z,9.70
2023-12-09T07:09:51.451Z,8.40
2023-12-09T07:12:54.738Z,9.47
2023-12-09T07:16:00.123Z,9.50
2023-12-09T07:19:03.725Z,10.57
2023-12-09T07:22:07.045Z,11.50
2023-12-09T07:25:10.696Z,10.67
2023-12-09T07:28:14.596Z,11.27
2023-12-09T07:31:20.137Z,9.50
2023-12-09T07:34:23.514Z,10.00
2023-12-09T07:37:27.186Z,10.30
2023-12-09T07:40:30.630Z,11.43
2023-12-09T07:43:34.149Z,10.73
2023-12-09T07:46:38.726Z,10.80
2023-12-09T07:49:44.052Z,11.50
2023-12-09T07:52:47.317Z,13.27
2023-12-09T07:55:50.445Z,12.93
2023-12-09T07:58:54.682Z,12.13
2023-12-09T08:01:59.266Z,12.03
2023-12-09T08:05:03.194Z,11.27
2023-12-09T08:08:07.820Z,11.57
2023-12-09T08:11:13.241Z,12.10
2023-12-09T08:14:16.442Z,12.00
2023-12-09T08:17:21.114Z,12.43
2023-12-09T08:20:24.501Z,11.57
2023-12-09T08:23:27.883Z,12.30
2023-12-09T08:26:31.576Z,11.47
2023-12-09T08:29:37.434Z,12.90
2023-12-09T08:32:43.124Z,12.43
2023-12-09T08:35:47.729Z,12.17
2023-12-09T08:38:53.138Z,12.07
2023-12-09T08:41:56.446Z,12.70
2023-12-09T08:44:59.758Z,13.53
2023-12-09T08:48:08.251Z,13.33
2023-12-09T08:51:11.658Z,13.57
2023-12-09T08:54:15.982Z,14.47
2023-12-09T08:57:20.020Z,14.10
2023-12-09T09:00:27.511Z,14.37
2023-12-09T09:03:32.170Z,13.30
2023-12-09T09:06:35.340Z,14.93
2023-12-09T09:09:40.962Z,14.60
2023-12-09T09:12:45.569Z,13.37
2023-12-09T09:15:51.311Z,13.90
2023-12-09T09:18:56.311Z,15.17
2023-12-09T09:22:00.657Z,14.87
2023-12-09T09:25:04.139Z,13.80
2023-12-09T09:28:08.152Z,13.77
2023-12-09T09:31:13.134Z,15.13
2023-12-09T09:34:17.764Z,14.80
2023-12-09T09:37:22.683Z,15.63
2023-12-09T09:40:26.013Z,14.87
2023-12-09T09:43:33.245Z,14.30
2023-12-09T09:46:40.288Z,14.80
2023-12-09T09:49:49.231Z,15.10
2023-12-09T09:52:55.196Z,14.73
2023-12-09T09:55:59.876Z,14.50
2023-12-09T09:59:04.876Z,15.20
2023-12-09T10:02:09.170Z,14.60
2023-12-09T10:05:14.277Z,17.00
2023-12-09T10:08:17.414Z,16.37
2023-12-09T10:11:20.562Z,18.33
2023-12-09T10:14:24.475Z,18.10
2023-12-09T10:17:28.476Z,17.87
2023-12-09T10:20:35.974Z,16.30
2023-12-09T10:23:39.370Z,16.20
2023-12-09T10:26:44.176Z,16.80
2023-12-09T10:29:48.088Z,16.23
2023-12-09T10:32:53.344Z,16.30
2023-12-09T10:35:58.983Z,16.03
2023-12-09T10:39:02.372Z,14.50
2023-12-09T10:42:06.532Z,8.40
2023-12-09T10:45:12.708Z,8.60
2023-12-09T10:48:16.479Z,9.70
2023-12-09T10:51:21.464Z,10.67
2023-12-09T10:54:25.047Z,10.93
2023-12-09T10:57:30.177Z,9.33
2023-12-09T11:00:37.753Z,9.30
2023-12-09T11:03:41.685Z,9.00
2023-12-09T11:06:48.565Z,7.77
2023-12-09T11:09:52.120Z,7.70
2023-12-09T11:12:55.625Z,7.60
2023-12-09T11:16:12.343Z,7.00
2023-12-09T11:19:18.267Z,6.10
2023-12-09T11:22:23.572Z,6.17
2023-12-09T11:25:29.056Z,6.80
2023-12-09T11:28:32.618Z,6.20
2023-12-09T11:31:40.896Z,5.90
2023-12-09T11:34:44.509Z,7.37
2023-12-09T11:37:51.538Z,8.17
2023-12-09T11:40:55.684Z,7.67
2023-12-09T11:44:00.248Z,8.40
2023-12-09T11:47:06.009Z,7.87
2023-12-09T11:50:10.307Z,8.00
2023-12-09T11:53:15.072Z,7.80
2023-12-09T11:56:18.637Z,8.77
2023-12-09T11:59:21.821Z,8.03
2023-12-09T12:02:25.295Z,9.27
2023-12-09T12:05:31.594Z,8.07
2023-12-09T12:08:36.667Z,8.73
2023-12-09T12:11:41.811Z,8.70
2023-12-09T12:14:45.143Z,8.23
2023-12-09T12:17:49.724Z,7.77
2023-12-09T12:20:53.165Z,8.20
2023-12-09T12:23:57.981Z,8.60
2023-12-09T12:27:01.614Z,7.73
2023-12-09T12:30:05.623Z,8.10
2023-12-09T12:33:09.066Z,7.20
2023-12-09T12:36:13.149Z,7.20
2023-12-09T12:39:18.591Z,7.70
2023-12-09T12:42:22.108Z,7.57
2023-12-09T12:45:28.569Z,6.73
2023-12-09T12:48:32.806Z,7.60
2023-12-09T12:51:36.558Z,7.20
2023-12-09T12:54:41.581Z,6.67
2023-12-09T12:57:45.579Z,6.80
2023-12-09T13:00:50.899Z,5.87
2023-12-09T13:03:54.713Z,6.20
2023-12-09T13:06:58.228Z,6.27
2023-12-09T13:10:06.471Z,6.47
2023-12-09T13:13:09.858Z,6.63
2023-12-09T13:16:13.150Z,6.20
2023-12-09T13:19:16.980Z,5.70
2023-12-09T13:22:20.232Z,5.20
2023-12-09T13:25:25.004Z,5.87
2023-12-09T13:28:28.952Z,5.27
2023-12-09T13:31:32.732Z,5.53
2023-12-09T13:34:37.023Z,5.23
2023-12-09T13:37:40.579Z,5.17
2023-12-09T13:40:47.661Z,5.80
2023-12-09T13:43:52.145Z,5.20
2023-12-09T13:46:55.357Z,5.77
2023-12-09T13:49:58.602Z,5.70
2023-12-09T13:53:02.382Z,5.10
2023-12-09T13:56:08.322Z,5.47
2023-12-09T13:59:11.616Z,4.70
2023-12-09T14:02:14.949Z,5.20
2023-12-09T14:05:18.498Z,5.20
2023-12-09T14:08:22.287Z,5.53
2023-12-09T14:11:28.628Z,4.80
2023-12-09T14:14:32.727Z,4.80
2023-12-09T14:17:36.217Z,5.13
2023-12-09T14:20:39.445Z,5.20
2023-12-09T14:23:43.141Z,4.83
2023-12-09T14:26:49.281Z,4.50
2023-12-09T14:29:52.877Z,4.73
2023-12-09T14:32:56.155Z,4.70
2023-12-09T14:35:59.460Z,4.90
2023-12-09T14:39:07.843Z,4.93
2023-12-09T14:42:12.742Z,5.57
2023-12-09T14:45:16.326Z,4.23
2023-12-09T14:48:20.292Z,4.40
2023-12-09T14:51:36.989Z,4.43
2023-12-09T14:54:46.476Z,4.60
2023-12-09T14:57:51.663Z,4.97
2023-12-09T15:00:55.465Z,4.73
2023-12-09T15:03:59.906Z,4.97
2023-12-09T15:07:03.696Z,5.13
2023-12-09T15:10:08.164Z,4.83
2023-12-09T15:13:12.931Z,4.40
2023-12-09T15:16:16.374Z,4.50
2023-12-09T15:19:19.953Z,4.57
2023-12-09T15:22:23.939Z,4.50
2023-12-09T15:25:27.194Z,5.07
2023-12-09T15:28:32.019Z,4.60
2023-12-09T15:31:35.340Z,4.70
2023-12-09T15:34:39.647Z,4.30
2023-12-09T15:37:45.066Z,5.20
2023-12-09T15:40:48.458Z,4.70
2023-12-09T15:43:53.509Z,4.87
2023-12-09T15:46:57.549Z,5.50
2023-12-09T15:50:02.015Z,5.70
2023-12-09T15:53:05.493Z,5.57
2023-12-09T15:56:10.400Z,5.73
2023-12-09T15:59:15.235Z,5.07
2023-12-09T16:02:18.602Z,6.10
2023-12-09T16:14:19.067Z,8.23
2023-12-09T16:17:22.672Z,8.60
2023-12-09T16:20:26.005Z,8.93
2023-12-09T16:23:29.401Z,9.17
2023-12-09T16:26:34.875Z,9.40
2023-12-09T16:29:40.447Z,9.57
2023-12-09T16:32:43.841Z,11.50
2023-12-09T16:35:47.222Z,12.63
2023-12-09T16:38:50.438Z,13.10
2023-12-09T16:41:53.823Z,13.60
2023-12-09T16:44:59.151Z,14.23
2023-12-09T16:48:03.387Z,15.10
2023-12-09T16:51:07.229Z,14.27
2023-12-09T16:54:11.243Z,14.70
2023-12-09T16:57:17.102Z,14.77
2023-12-09T17:00:22.297Z,13.20
2023-12-09T17:03:26.138Z,13.10
2023-12-09T17:06:29.481Z,12.10
2023-12-09T17:09:33.802Z,11.70
2023-12-09T17:12:40.579Z,11.50
2023-12-09T17:15:47.250Z,11.20
2023-12-09T17:18:51.157Z,11.07
2023-12-09T17:21:54.527Z,11.60
2023-12-09T17:24:57.852Z,10.83
2023-12-09T17:28:01.203Z,12.40
2023-12-09T17:31:06.607Z,11.10
2023-12-09T17:34:11.744Z,12.13
2023-12-09T17:37:15.859Z,12.37
2023-12-09T17:40:19.755Z,12.47
2023-12-09T17:43:23.849Z,11.70
2023-12-09T17:46:29.243Z,13.77
2023-12-09T17:49:32.946Z,19.37
2023-12-09T17:52:38.475Z,19.53
2023-12-09T17:55:43.207Z,17.07
2023-12-09T17:58:49.255Z,17.60
2023-12-09T18:01:54.327Z,17.27
2023-12-09T18:04:58.027Z,15.60
2023-12-09T18:08:04.943Z,16.17
2023-12-09T18:11:08.668Z,16.33
2023-12-09T18:14:12.300Z,15.63
2023-12-09T18:17:17.203Z,15.83
2023-12-09T18:20:20.677Z,16.10
2023-12-09T18:23:24.156Z,18.83
2023-12-09T18:26:27.812Z,21.10
2023-12-09T18:29:31.620Z,20.63
2023-12-09T18:32:39.802Z,19.10
2023-12-09T18:35:43.647Z,18.60
2023-12-09T18:38:46.883Z,16.90
2023-12-09T18:41:50.109Z,16.13
2023-12-09T18:44:53.864Z,16.10
2023-12-09T18:47:58.723Z,15.17
2023-12-09T18:51:04.844Z,14.97
2023-12-09T18:54:08.906Z,13.73
2023-12-09T18:57:14.460Z,14.07
2023-12-09T19:00:17.888Z,14.97
2023-12-09T19:03:23.309Z,13.70
2023-12-09T19:06:26.729Z,13.40
2023-12-09T19:09:30.163Z,13.70
2023-12-09T19:12:33.534Z,12.53
2023-12-09T19:15:36.993Z,12.80
2023-12-09T19:18:41.869Z,12.60
2023-12-09T19:21:45.340Z,11.73
2023-12-09T19:24:49.023Z,11.83
2023-12-09T19:27:52.255Z,13.63
2023-12-09T19:30:55.564Z,11.87
2023-12-09T19:34:01.867Z,11.87
2023-12-09T19:37:05.690Z,12.47
2023-12-09T19:40:11.674Z,11.43
2023-12-09T19:43:17.775Z,11.00
2023-12-09T19:46:21.009Z,11.10
2023-12-09T19:49:26.155Z,10.83
2023-12-09T19:52:30.485Z,12.07
2023-12-09T19:55:37.669Z,10.80
2023-12-09T19:58:41.152Z,10.77
2023-12-09T20:01:44.469Z,11.10
2023-12-09T20:04:49.750Z,10.70
2023-12-09T20:07:53.111Z,11.20
2023-12-09T20:10:57.810Z,10.23
2023-12-09T20:14:01.112Z,10.93
2023-12-09T20:17:07.125Z,11.23
2023-12-09T20:20:12.988Z,11.03
2023-12-09T20:23:16.454Z,10.00
2023-12-09T20:26:19.793Z,10.47
2023-12-09T20:29:23.309Z,10.33
2023-12-09T20:32:27.132Z,10.47
2023-12-09T20:35:32.324Z,10.60
2023-12-09T20:38:36.261Z,10.10
2023-12-09T20:41:39.998Z,10.00
2023-12-09T20:44:44.562Z,9.40
2023-12-09T20:47:48.375Z,9.70
2023-12-09T20:50:54.621Z,9.80
2023-12-09T20:53:58.041Z,8.97
2023-12-09T20:57:03.292Z,9.50
2023-12-09T21:00:09.775Z,10.60
2023-12-09T21:03:13.324Z,10.03
2023-12-09T21:06:18.314Z,9.00
2023-12-09T21:09:23.703Z,9.03
2023-12-09T21:12:27.101Z,8.00
2023-12-09T21:15:30.542Z,8.60
2023-12-09T21:18:33.975Z,8.97
2023-12-09T21:21:38.553Z,8.97
2023-12-09T21:24:41.954Z,8.70
2023-12-09T21:27:45.618Z,9.00
2023-12-09T21:30:48.990Z,8.70
2023-12-09T21:33:53.397Z,8.30
2023-12-09T21:36:58.009Z,8.70
2023-12-09T21:40:01.612Z,8.60
2023-12-09T21:43:05.476Z,8.63
2023-12-09T21:46:08.627Z,9.37
2023-12-09T21:49:12.071Z,9.40
2023-12-09T21:52:16.882Z,8.87
2023-12-09T21:55:21.087Z,9.10
2023-12-09T21:58:24.378Z,8.60
2023-12-09T22:01:27.494Z,10.37
2023-12-09T22:04:30.681Z,9.23
2023-12-09T22:07:35.349Z,8.97
2023-12-09T22:10:38.980Z,10.27
2023-12-09T22:13:42.728Z,10.53
2023-12-09T22:16:46.186Z,10.00
2023-12-09T22:19:49.299Z,10.20
2023-12-09T22:22:55.706Z,10.40
2023-12-09T22:25:59.379Z,10.10
2023-12-09T22:29:02.666Z,9.37
2023-12-09T22:32:06.535Z,9.90
2023-12-09T22:35:10.396Z,11.00
2023-12-09T22:38:15.313Z,10.27
2023-12-09T22:41:22.749Z,10.60
2023-12-09T22:44:25.875Z,10.77
2023-12-09T22:47:30.167Z,11.03
2023-12-09T22:50:33.431Z,10.13
2023-12-09T22:53:37.960Z,10.00
2023-12-09T22:56:41.139Z,10.33
2023-12-09T22:59:45.518Z,10.47
2023-12-09T23:02:48.664Z,11.27
2023-12-09T23:05:51.756Z,10.70
2023-12-09T23:08:56.331Z,11.00
2023-12-09T23:11:59.590Z,10.40
2023-12-09T23:15:02.881Z,10.77
2023-12-09T23:18:06.312Z,12.10
2023-12-09T23:21:10.210Z,10.17
2023-12-09T23:24:14.994Z,10.50
2023-12-09T23:27:18.152Z,10.50
2023-12-09T23:30:21.382Z,10.17
2023-12-09T23:33:24.817Z,10.60
2023-12-09T23:36:28.172Z,11.37
2023-12-09T23:39:32.890Z,10.70
2023-12-09T23:42:36.151Z,11.43
2023-12-09T23:45:39.518Z,11.33
2023-12-09T23:48:42.842Z,10.13
2023-12-09T23:51:46.040Z,11.70
2023-12-09T23:54:50.623Z,11.30
2023-12-09T23:57:53.842Z,10.40
